Time,TemperatureF,DewpointF,PressureIn,WindDirection,WindDirectionDegrees,WindSpeedMPH,WindSpeedGustMPH,Humidity,HourlyPrecipIn,Conditions,Clouds,dailyrainin,SolarRadiationWatts/m^2,SoftwareType,DateUTC
2013-07-02 00:32:00,73.0,71.0,29.98,SSE,147,0.0,1.0,94,0.11,,,-99.99,0.000000,,2013-07-02 04:32:00,
2013-07-02 00:42:00,73.0,71.0,29.97,East,92,0.0,7.0,94,0.37,,,-99.99,0.000000,,2013-07-02 04:42:00,
2013-07-02 00:53:00,73.0,71.0,29.97,East,101,1.0,9.0,94,0.40,,,-99.99,0.000000,,2013-07-02 04:53:00,
2013-07-02 01:01:00,73.0,71.0,29.97,East,98,0.0,5.0,94,0.46,,,-99.99,0.000000,,2013-07-02 05:01:00,
2013-07-02 01:32:00,73.0,71.0,29.96,SSE,158,1.0,4.0,94,0.19,,,1.23,0.000000,,2013-07-02 05:32:00,
2013-07-02 01:43:00,73.0,71.0,29.96,SE,128,1.0,5.0,94,0.12,,,1.23,0.000000,,2013-07-02 05:43:00,
2013-07-02 01:53:00,73.0,71.0,29.96,SSE,163,0.0,5.0,94,0.08,,,1.23,0.000000,,2013-07-02 05:53:00,
2013-07-02 02:34:00,74.0,72.0,29.95,SE,137,2.0,4.0,94,0.37,,,1.49,0.000000,,2013-07-02 06:34:00,
2013-07-02 02:53:00,74.0,72.0,29.94,SSE,155,3.0,9.0,94,0.48,,,1.60,0.000000,,2013-07-02 06:53:00,
2013-07-02 03:01:00,74.0,72.0,29.94,SE,128,0.0,5.0,94,0.42,,,1.57,0.000000,,2013-07-02 07:01:00,
2013-07-02 03:44:00,74.0,72.0,29.95,South,188,5.0,10.0,94,0.03,,,1.60,0.000000,,2013-07-02 07:44:00,
2013-07-02 03:53:00,73.0,71.0,29.95,South,179,4.0,6.0,94,0.03,,,1.60,0.000000,,2013-07-02 07:53:00,
2013-07-02 04:02:00,74.0,72.0,29.94,SSE,151,1.0,6.0,94,0.03,,,1.57,0.000000,,2013-07-02 08:02:00,
2013-07-02 04:44:00,73.0,71.0,29.95,South,175,0.0,2.0,94,0.00,,,1.57,0.000000,,2013-07-02 08:44:00,
2013-07-02 04:53:00,73.0,71.0,29.95,South,180,0.0,2.0,94,0.00,,,1.57,0.000000,,2013-07-02 08:53:00,
2013-07-02 05:52:00,74.0,72.0,29.98,South,187,0.0,4.0,95,0.01,,,1.58,0.000000,,2013-07-02 09:52:00,
2013-07-02 06:01:00,74.0,72.0,29.98,SSE,159,3.0,4.0,94,0.05,,,1.62,0.000000,,2013-07-02 10:01:00,
2013-07-02 08:01:00,74.0,72.0,30.01,South,178,2.0,9.0,95,0.06,,,2.01,72.000000,,2013-07-02 12:01:00,
2013-07-02 08:43:00,73.0,71.0,30.03,SSE,159,0.0,0.0,95,0.03,,,2.04,25.000000,,2013-07-02 12:43:00,
2013-07-02 08:52:00,73.0,71.0,30.03,SSE,159,0.0,0.0,95,0.04,,,2.05,35.000000,,2013-07-02 12:52:00,
2013-07-02 09:01:00,73.0,71.0,30.03,SSE,159,0.0,0.0,95,0.05,,,2.06,44.000000,,2013-07-02 13:01:00,
2013-07-02 09:43:00,76.0,74.0,30.03,SSE,149,0.0,3.0,95,0.04,,,2.07,309.000000,,2013-07-02 13:43:00,
2013-07-02 10:02:00,77.0,75.0,30.03,SSE,162,0.0,6.0,95,0.02,,,2.02,311.000000,,2013-07-02 14:02:00,
2013-07-02 10:43:00,78.0,76.0,30.03,SSE,161,0.0,4.0,95,0.00,,,2.02,316.000000,,2013-07-02 14:43:00,
2013-07-02 11:33:00,84.0,78.0,30.03,NE,48,1.0,3.0,83,0.00,,,2.00,918.000000,,2013-07-02 15:33:00,
2013-07-02 11:53:00,86.0,79.0,30.03,SSE,165,0.0,3.0,79,0.00,,,2.00,946.000000,,2013-07-02 15:53:00,
2013-07-02 12:01:00,87.0,78.0,30.03,ESE,115,1.0,6.0,75,0.00,,,2.00,988.000000,,2013-07-02 16:01:00,
2013-07-02 12:43:00,89.0,80.0,30.03,SSE,153,1.0,6.0,74,0.00,,,2.00,708.000000,,2013-07-02 16:43:00,
2013-07-02 14:34:00,90.0,77.0,30.02,SSE,164,2.0,5.0,66,0.00,,,1.97,504.000000,,2013-07-02 18:34:00,
2013-07-02 14:53:00,89.0,77.0,30.02,South,180,1.0,3.0,68,0.00,,,1.97,406.000000,,2013-07-02 18:53:00,
2013-07-02 15:53:00,89.0,78.0,30.00,ESE,113,0.0,5.0,70,0.00,,,1.97,976.000000,,2013-07-02 19:53:00,
2013-07-02 16:33:00,90.0,77.0,29.98,SSW,203,1.0,5.0,66,0.00,,,1.96,527.000000,,2013-07-02 20:33:00,
2013-07-02 16:43:00,89.0,77.0,29.98,SSW,194,0.0,4.0,67,0.00,,,1.96,448.000000,,2013-07-02 20:43:00,
2013-07-02 17:44:00,82.0,73.0,30.02,SSE,166,6.0,18.0,75,0.00,,,1.96,288.000000,,2013-07-02 21:44:00,
2013-07-02 17:52:00,82.0,74.0,30.01,SSW,192,4.0,9.0,78,0.00,,,1.96,397.000000,,2013-07-02 21:52:00,
2013-07-02 18:43:00,82.0,75.0,30.01,ENE,61,0.0,1.0,79,0.00,,,1.92,148.000000,,2013-07-02 22:43:00,
2013-07-02 18:53:00,82.0,74.0,30.01,SSE,156,0.0,2.0,78,0.00,,,1.92,163.000000,,2013-07-02 22:53:00,
2013-07-02 19:01:00,82.0,74.0,30.02,South,170,0.0,2.0,78,0.00,,,1.87,193.000000,,2013-07-02 23:01:00,
2013-07-02 19:12:00,82.0,74.0,30.03,South,169,0.0,1.0,77,0.00,,,1.87,295.000000,,2013-07-02 23:12:00,
2013-07-02 19:22:00,82.0,73.0,30.03,SSE,155,2.0,4.0,74,0.00,,,1.87,98.000000,,2013-07-02 23:22:00,
2013-07-02 19:33:00,83.0,75.0,30.03,SSW,205,0.0,5.0,76,0.00,,,1.87,91.000000,,2013-07-02 23:33:00,
2013-07-02 19:52:00,81.0,74.0,30.04,SE,136,2.0,4.0,79,0.00,,,1.87,47.000000,,2013-07-02 23:52:00,
2013-07-02 20:01:00,80.0,74.0,30.05,SSE,151,3.0,4.0,81,0.00,,,1.63,33.000000,,2013-07-03 00:01:00,
2013-07-02 20:33:00,79.0,73.0,30.06,SSE,156,1.0,5.0,82,0.00,,,1.63,12.000000,,2013-07-03 00:33:00,
2013-07-02 20:44:00,78.0,72.0,30.06,SSE,167,1.0,5.0,83,0.00,,,1.63,7.000000,,2013-07-03 00:44:00,
2013-07-02 20:52:00,78.0,72.0,30.06,SSE,153,1.0,5.0,83,0.00,,,1.63,0.000000,,2013-07-03 00:52:00,
2013-07-02 21:01:00,78.0,73.0,30.06,SSE,157,0.0,4.0,84,0.00,,,1.63,0.000000,,2013-07-03 01:01:00,
2013-07-02 21:11:00,77.0,72.0,30.06,SE,145,1.0,6.0,85,0.00,,,1.55,0.000000,,2013-07-03 01:11:00,
2013-07-02 21:33:00,77.0,72.0,30.06,SSE,147,1.0,5.0,85,0.00,,,1.55,0.000000,,2013-07-03 01:33:00,
2013-07-02 21:56:00,77.0,72.0,30.06,South,169,0.0,5.0,85,0.00,,,1.55,0.000000,,2013-07-03 01:56:00,
2013-07-02 22:39:00,77.0,73.0,30.06,South,178,0.0,4.0,87,0.00,,,1.55,0.000000,,2013-07-03 02:39:00,
2013-07-02 22:55:00,77.0,73.0,30.06,SSE,154,1.0,3.0,87,0.00,,,1.55,0.000000,,2013-07-03 02:55:00,
2013-07-02 23:05:00,77.0,73.0,30.06,South,173,1.0,2.0,87,0.00,,,1.55,0.000000,,2013-07-03 03:05:00,